createdAt,value
2023-03-04T00:00:11.621Z,0
2023-03-04T00:01:11.299Z,0
2023-03-04T00:02:11.921Z,0
2023-03-04T00:03:11.815Z,0
2023-03-04T00:04:11.476Z,0
2023-03-04T00:05:11.426Z,0
2023-03-04T00:06:11.365Z,0
2023-03-04T00:07:11.351Z,0
2023-03-04T00:08:11.316Z,0
2023-03-04T00:09:11.401Z,0
2023-03-04T00:10:11.295Z,0
2023-03-04T00:11:11.207Z,0
2023-03-04T00:12:11.203Z,0
2023-03-04T00:13:11.193Z,0
2023-03-04T00:14:11.151Z,0
2023-03-04T00:15:11.098Z,0
2023-03-04T00:16:11.306Z,0
2023-03-04T00:17:11.008Z,0
2023-03-04T00:18:10.995Z,0
2023-03-04T00:19:10.728Z,0
2023-03-04T00:20:10.902Z,0
2023-03-04T00:21:10.937Z,0
2023-03-04T00:22:10.937Z,0
2023-03-04T00:23:10.810Z,0
2023-03-04T00:24:10.769Z,0
2023-03-04T00:25:10.724Z,0
2023-03-04T00:26:10.723Z,0
2023-03-04T00:27:10.697Z,0
2023-03-04T00:28:10.665Z,0
2023-03-04T00:29:10.737Z,0
2023-03-04T00:30:10.595Z,0
2023-03-04T00:31:10.520Z,0
2023-03-04T00:32:11.373Z,0
2023-03-04T00:33:10.448Z,0
2023-03-04T00:34:10.468Z,0
2023-03-04T00:35:10.433Z,0
2023-03-04T00:36:10.405Z,0
2023-03-04T00:37:10.316Z,0
2023-03-04T00:38:10.288Z,0
2023-03-04T00:39:10.258Z,0
2023-03-04T00:40:10.245Z,0
2023-03-04T00:41:10.198Z,0
2023-03-04T00:42:10.154Z,0
2023-03-04T00:43:10.120Z,0
2023-03-04T00:44:10.161Z,0
2023-03-04T00:45:10.111Z,0
2023-03-04T00:46:10.547Z,0
2023-03-04T00:47:09.979Z,0
2023-03-04T00:48:09.945Z,0
2023-03-04T00:49:10.107Z,0
2023-03-04T00:50:09.910Z,0
2023-03-04T00:51:09.897Z,0
2023-03-04T00:52:09.853Z,0
2023-03-04T00:53:09.795Z,0
2023-03-04T00:54:10.531Z,0
2023-03-04T00:55:09.782Z,0
2023-03-04T00:56:09.710Z,0
2023-03-04T00:57:09.662Z,0
2023-03-04T00:58:09.600Z,0
2023-03-04T00:59:09.632Z,0
2023-03-04T01:00:09.616Z,0
2023-03-04T01:01:09.812Z,0
2023-03-04T01:02:10.115Z,0
2023-03-04T01:03:09.445Z,0
2023-03-04T01:04:09.411Z,0
2023-03-04T01:05:09.415Z,0
2023-03-04T01:06:09.390Z,0
2023-03-04T01:07:09.352Z,0
2023-03-04T01:08:09.272Z,0
2023-03-04T01:09:09.260Z,0
2023-03-04T01:10:09.207Z,0
2023-03-04T01:11:09.224Z,0
2023-03-04T01:12:08.936Z,0
2023-03-04T01:13:09.123Z,0
2023-03-04T01:14:09.110Z,0
2023-03-04T01:15:09.039Z,0
2023-03-04T01:16:08.787Z,0
2023-03-04T01:17:09.092Z,0
2023-03-04T01:18:09.255Z,0
2023-03-04T01:19:08.917Z,0
2023-03-04T01:20:08.908Z,0
2023-03-04T01:21:08.840Z,0
2023-03-04T01:22:08.829Z,0
2023-03-04T01:23:08.798Z,0
2023-03-04T01:24:08.732Z,0
2023-03-04T01:25:08.705Z,0
2023-03-04T01:26:08.671Z,0
2023-03-04T01:27:08.388Z,0
2023-03-04T01:28:08.590Z,0
2023-03-04T01:29:08.579Z,0
2023-03-04T01:30:08.522Z,0
2023-03-04T01:31:08.821Z,0
2023-03-04T01:32:08.759Z,0
2023-03-04T01:33:08.474Z,0
2023-03-04T01:34:08.460Z,0
2023-03-04T01:35:08.450Z,0
2023-03-04T01:36:08.339Z,0
2023-03-04T01:37:08.283Z,0
2023-03-04T01:38:09.857Z,0
2023-03-04T01:39:08.015Z,0
2023-03-04T01:40:08.193Z,0
2023-03-04T01:41:08.164Z,0
2023-03-04T01:42:08.219Z,0
2023-03-04T01:43:08.080Z,0
2023-03-04T01:44:08.127Z,0
2023-03-04T01:45:08.035Z,0
2023-03-04T01:46:08.531Z,0
2023-03-04T01:47:07.977Z,0
2023-03-04T01:48:07.944Z,0
2023-03-04T01:49:08.308Z,0
2023-03-04T01:50:07.910Z,0
2023-03-04T01:51:07.846Z,0
2023-03-04T01:52:07.771Z,0
2023-03-04T01:53:07.774Z,0
2023-03-04T01:54:07.752Z,0
2023-03-04T01:55:07.719Z,0
2023-03-04T01:56:07.740Z,0
2023-03-04T01:57:07.616Z,0
2023-03-04T01:58:07.624Z,0
2023-03-04T01:59:07.543Z,0
2023-03-04T02:00:07.511Z,0
2023-03-04T02:01:07.486Z,0
2023-03-04T02:02:07.210Z,0
2023-03-04T02:03:07.420Z,0
2023-03-04T02:04:07.662Z,0
2023-03-04T02:05:07.361Z,0
2023-03-04T02:06:07.356Z,0
2023-03-04T02:07:07.285Z,0
2023-03-04T02:08:07.272Z,0
2023-03-04T02:09:07.420Z,0
2023-03-04T02:10:07.232Z,0
2023-03-04T02:11:07.208Z,0
2023-03-04T02:12:07.135Z,0
2023-03-04T02:13:07.100Z,0
2023-03-04T02:14:07.086Z,0
2023-03-04T02:15:07.385Z,0
2023-03-04T02:16:07.278Z,0
2023-03-04T02:17:06.953Z,0
2023-03-04T02:18:06.897Z,0
2023-03-04T02:19:06.633Z,0
2023-03-04T02:20:06.861Z,0
2023-03-04T02:21:06.847Z,0
2023-03-04T02:22:06.807Z,0
2023-03-04T02:23:06.723Z,0
2023-03-04T02:24:06.732Z,0
2023-03-04T02:25:06.682Z,0
2023-03-04T02:26:06.638Z,0
2023-03-04T02:27:06.628Z,0
2023-03-04T02:28:06.573Z,0
2023-03-04T02:29:06.522Z,0
2023-03-04T02:30:06.494Z,0
2023-03-04T02:31:06.696Z,0
2023-03-04T02:32:06.698Z,0
2023-03-04T02:33:06.378Z,0
2023-03-04T02:34:06.373Z,0
2023-03-04T02:35:06.538Z,0
2023-03-04T02:36:06.412Z,0
2023-03-04T02:37:06.070Z,0
2023-03-04T02:38:06.306Z,0
2023-03-04T02:39:06.531Z,0
2023-03-04T02:40:06.197Z,0
2023-03-04T02:41:06.120Z,0
2023-03-04T02:42:06.143Z,0
2023-03-04T02:43:06.068Z,0
2023-03-04T02:44:06.013Z,0
2023-03-04T02:45:05.991Z,0
2023-03-04T02:46:05.951Z,0
2023-03-04T02:47:06.004Z,0
2023-03-04T02:48:05.927Z,0
2023-03-04T02:49:05.903Z,0
2023-03-04T02:50:05.579Z,0
2023-03-04T02:51:05.809Z,0
2023-03-04T02:52:05.810Z,0
2023-03-04T02:53:05.484Z,0
2023-03-04T02:54:05.721Z,0
2023-03-04T02:55:05.680Z,0
2023-03-04T02:56:05.605Z,0
2023-03-04T02:57:05.594Z,0
2023-03-04T02:58:05.572Z,0
2023-03-04T02:59:05.571Z,0
2023-03-04T03:00:05.476Z,0
2023-03-04T03:01:05.503Z,0
2023-03-04T03:02:05.852Z,0
2023-03-04T03:03:05.666Z,0
2023-03-04T03:04:05.393Z,0
2023-03-04T03:05:05.304Z,0
2023-03-04T03:06:05.036Z,0
2023-03-04T03:07:05.254Z,0
2023-03-04T03:08:05.256Z,0
2023-03-04T03:09:05.195Z,0
2023-03-04T03:10:05.173Z,0
2023-03-04T03:11:05.117Z,0
2023-03-04T03:12:05.065Z,0
2023-03-04T03:13:05.106Z,0
2023-03-04T03:14:05.019Z,0
2023-03-04T03:15:05.024Z,0
2023-03-04T03:16:05.206Z,0
2023-03-04T03:17:04.883Z,0
2023-03-04T03:18:04.873Z,0
2023-03-04T03:19:04.820Z,0
2023-03-04T03:20:04.823Z,0
2023-03-04T03:21:04.747Z,0
2023-03-04T03:22:04.796Z,0
2023-03-04T03:23:04.719Z,0
2023-03-04T03:24:04.697Z,0
2023-03-04T03:25:04.637Z,0
2023-03-04T03:26:04.620Z,0
2023-03-04T03:27:04.576Z,0
2023-03-04T03:28:04.557Z,0
2023-03-04T03:29:04.540Z,0
2023-03-04T03:30:04.476Z,0
2023-03-04T03:31:04.436Z,0
2023-03-04T03:32:04.790Z,0
2023-03-04T03:33:04.372Z,0
2023-03-04T03:34:04.310Z,0
2023-03-04T03:35:04.314Z,0
2023-03-04T03:36:05.040Z,0
2023-03-04T03:37:04.233Z,0
2023-03-04T03:38:04.167Z,0
2023-03-04T03:39:04.160Z,0
2023-03-04T03:40:04.134Z,0
2023-03-04T03:41:04.095Z,0
2023-03-04T03:42:04.100Z,0
2023-03-04T03:43:04.058Z,0
2023-03-04T03:44:04.014Z,0
2023-03-04T03:45:04.002Z,0
2023-03-04T03:46:04.270Z,0
2023-03-04T03:47:03.895Z,0
2023-03-04T03:48:03.846Z,0
2023-03-04T03:49:03.821Z,0
2023-03-04T03:50:03.801Z,0
2023-03-04T03:51:03.728Z,0
2023-03-04T03:52:03.707Z,0
2023-03-04T03:53:03.683Z,0
2023-03-04T03:54:03.680Z,0
2023-03-04T03:55:06.393Z,0
2023-03-04T03:56:03.562Z,0
2023-03-04T03:57:03.558Z,0
2023-03-04T03:58:03.536Z,0
2023-03-04T03:59:03.226Z,0
2023-03-04T04:00:03.434Z,0
2023-03-04T04:01:05.786Z,0
2023-03-04T04:02:04.082Z,0
2023-03-04T04:03:03.644Z,0
2023-03-04T04:04:03.069Z,0
2023-03-04T04:05:03.284Z,0
2023-03-04T04:06:03.304Z,0
2023-03-04T04:07:03.230Z,0
2023-03-04T04:08:03.690Z,0
2023-03-04T04:09:03.135Z,0
2023-03-04T04:10:03.117Z,0
2023-03-04T04:11:03.110Z,0
2023-03-04T04:12:03.042Z,0
2023-03-04T04:13:03.015Z,0
2023-03-04T04:14:03.002Z,0
2023-03-04T04:15:02.976Z,0
2023-03-04T04:16:02.904Z,0
2023-03-04T04:17:02.994Z,0
2023-03-04T04:18:02.896Z,0
2023-03-04T04:19:02.830Z,0
2023-03-04T04:20:02.770Z,0
2023-03-04T04:21:02.759Z,0
2023-03-04T04:22:02.682Z,0
2023-03-04T04:23:02.675Z,0
2023-03-04T04:24:02.624Z,0
2023-03-04T04:25:02.662Z,0
2023-03-04T04:26:02.556Z,0
2023-03-04T04:27:02.590Z,0
2023-03-04T04:28:02.507Z,0
2023-03-04T04:29:02.611Z,0
2023-03-04T04:30:02.572Z,0
2023-03-04T04:31:02.720Z,0
2023-03-04T04:32:02.616Z,0
2023-03-04T04:33:02.312Z,0
2023-03-04T04:34:02.070Z,0
2023-03-04T04:35:02.306Z,0
2023-03-04T04:36:02.356Z,0
2023-03-04T04:37:02.172Z,0
2023-03-04T04:38:02.153Z,0
2023-03-04T04:39:02.115Z,0
2023-03-04T04:40:02.078Z,0
2023-03-04T04:41:02.025Z,0
2023-03-04T04:42:02.111Z,0
2023-03-04T04:43:01.978Z,0
2023-03-04T04:44:01.939Z,0
2023-03-04T04:45:01.950Z,0
2023-03-04T04:46:02.159Z,0
2023-03-04T04:47:01.829Z,0
2023-03-04T04:48:01.799Z,0
2023-03-04T04:49:01.756Z,0
2023-03-04T04:50:01.757Z,0
2023-03-04T04:51:01.719Z,0
2023-03-04T04:52:01.679Z,0
2023-03-04T04:53:01.624Z,0
2023-03-04T04:54:01.602Z,0
2023-03-04T04:55:01.666Z,0
2023-03-04T04:56:01.517Z,0
2023-03-04T04:57:01.485Z,0
2023-03-04T04:58:01.442Z,0
2023-03-04T04:59:01.461Z,0
2023-03-04T05:00:01.158Z,0
2023-03-04T05:01:01.618Z,0
2023-03-04T05:02:01.434Z,0
2023-03-04T05:03:01.594Z,0
2023-03-04T05:04:01.267Z,0
2023-03-04T05:05:01.212Z,0
2023-03-04T05:06:01.201Z,0
2023-03-04T05:07:01.188Z,0
2023-03-04T05:08:01.127Z,0
2023-03-04T05:09:01.072Z,0
2023-03-04T05:10:01.077Z,0
2023-03-04T05:11:01.025Z,0
2023-03-04T05:12:00.977Z,0
2023-03-04T05:13:00.949Z,0
2023-03-04T05:14:00.926Z,0
2023-03-04T05:15:00.913Z,0
2023-03-04T05:16:01.135Z,0
2023-03-04T05:17:00.860Z,0
2023-03-04T05:18:00.564Z,0
2023-03-04T05:19:00.746Z,0
2023-03-04T05:20:00.693Z,0
2023-03-04T05:21:00.667Z,0
2023-03-04T05:22:00.911Z,0
2023-03-04T05:23:00.682Z,0
2023-03-04T05:24:00.571Z,0
2023-03-04T05:25:00.528Z,0
2023-03-04T05:26:00.514Z,0
2023-03-04T05:27:00.458Z,0
2023-03-04T05:28:00.476Z,0
2023-03-04T05:29:00.433Z,0
2023-03-04T05:30:00.426Z,0
2023-03-04T05:31:00.638Z,0
2023-03-04T05:32:00.482Z,0
2023-03-04T05:33:00.292Z,0
2023-03-04T05:34:00.273Z,0
2023-03-04T05:35:00.203Z,0
2023-03-04T05:36:00.384Z,0
2023-03-04T05:37:00.146Z,0
2023-03-04T05:38:00.146Z,0
2023-03-04T05:39:00.122Z,0
2023-03-04T05:40:00.043Z,0
2023-03-04T05:41:00.010Z,0
2023-03-04T05:41:59.977Z,0
2023-03-04T05:42:59.936Z,0
2023-03-04T05:43:59.901Z,0
2023-03-04T05:44:59.896Z,0
2023-03-04T05:45:59.913Z,0
2023-03-04T05:47:00.182Z,0
2023-03-04T05:47:59.797Z,0
2023-03-04T05:48:59.769Z,0
2023-03-04T05:49:59.730Z,0
2023-03-04T05:50:59.668Z,0
2023-03-04T05:51:59.641Z,0
2023-03-04T05:52:59.599Z,0
2023-03-04T05:53:59.598Z,0
2023-03-04T05:54:59.559Z,0
2023-03-04T05:55:59.322Z,0
2023-03-04T05:56:59.502Z,0
2023-03-04T05:57:59.414Z,0
2023-03-04T05:58:59.412Z,0
2023-03-04T05:59:59.367Z,0
2023-03-04T06:00:59.346Z,0
2023-03-04T06:01:59.286Z,0
2023-03-04T06:02:59.680Z,0
2023-03-04T06:03:59.563Z,0
2023-03-04T06:04:59.240Z,0
2023-03-04T06:05:59.177Z,0
2023-03-04T06:06:59.113Z,0
2023-03-04T06:07:59.149Z,0
2023-03-04T06:08:59.065Z,0
2023-03-04T06:09:59.033Z,0
2023-03-04T06:10:59.012Z,0
2023-03-04T06:11:58.951Z,0
2023-03-04T06:12:58.915Z,5
2023-03-04T06:13:59.165Z,5
2023-03-04T06:14:58.839Z,5
2023-03-04T06:15:59.076Z,5
2023-03-04T06:16:58.790Z,5
2023-03-04T06:17:58.748Z,5
2023-03-04T06:18:58.755Z,5
2023-03-04T06:19:58.695Z,5
2023-03-04T06:20:58.682Z,5
2023-03-04T06:21:58.621Z,5
2023-03-04T06:22:58.667Z,5
2023-03-04T06:23:58.544Z,5
2023-03-04T06:24:58.512Z,10
2023-03-04T06:25:58.488Z,10
2023-03-04T06:26:58.472Z,10
2023-03-04T06:28:02.301Z,10
2023-03-04T06:28:58.365Z,10
2023-03-04T06:29:58.325Z,15
2023-03-04T06:30:58.336Z,15
2023-03-04T06:31:58.674Z,15
2023-03-04T06:32:58.242Z,15
2023-03-04T06:33:58.187Z,15
2023-03-04T06:34:58.196Z,15
2023-03-04T06:35:58.491Z,15
2023-03-04T06:36:57.623Z,15
2023-03-04T06:37:58.104Z,15
2023-03-04T06:38:58.049Z,15
2023-03-04T06:39:58.004Z,15
2023-03-04T06:41:01.425Z,20
2023-03-04T06:41:58.043Z,20
2023-03-04T06:42:57.914Z,25
2023-03-04T06:43:57.854Z,25
2023-03-04T06:44:57.814Z,25
2023-03-04T06:45:57.805Z,30
2023-03-04T06:46:58.022Z,30
2023-03-04T06:47:57.711Z,35
2023-03-04T06:48:57.673Z,30
2023-03-04T06:49:57.642Z,35
2023-03-04T06:50:57.645Z,35
2023-03-04T06:51:57.577Z,35
2023-03-04T06:52:57.603Z,40
2023-03-04T06:53:57.571Z,40
2023-03-04T06:54:57.534Z,45
2023-03-04T06:55:57.475Z,45
2023-03-04T06:56:57.412Z,40
2023-03-04T06:57:58.225Z,40
2023-03-04T06:58:57.369Z,40
2023-03-04T06:59:57.320Z,40
2023-03-04T07:00:57.539Z,40
2023-03-04T07:01:57.318Z,45
2023-03-04T07:02:59.755Z,50
2023-03-04T07:03:57.622Z,55
2023-03-04T07:04:57.145Z,60
2023-03-04T07:05:57.163Z,60
2023-03-04T07:06:57.094Z,65
2023-03-04T07:07:57.029Z,65
2023-03-04T07:08:57.033Z,65
2023-03-04T07:09:56.996Z,70
2023-03-04T07:10:56.927Z,70
2023-03-04T07:11:56.912Z,65
2023-03-04T07:12:56.631Z,65
2023-03-04T07:13:56.884Z,60
2023-03-04T07:14:56.943Z,60
2023-03-04T07:15:56.764Z,55
2023-03-04T07:16:56.765Z,60
2023-03-04T07:17:56.698Z,60
2023-03-04T07:18:56.674Z,60
2023-03-04T07:19:56.388Z,60
2023-03-04T07:20:56.600Z,65
2023-03-04T07:21:56.625Z,75
2023-03-04T07:22:56.549Z,80
2023-03-04T07:23:56.495Z,90
2023-03-04T07:24:56.497Z,95
2023-03-04T07:25:58.718Z,95
2023-03-04T07:26:56.390Z,85
2023-03-04T07:27:56.380Z,80
2023-03-04T07:28:56.403Z,75
2023-03-04T07:29:56.317Z,70
2023-03-04T07:30:56.345Z,70
2023-03-04T07:31:59.596Z,70
2023-03-04T07:32:56.909Z,70
2023-03-04T07:33:56.179Z,70
2023-03-04T07:34:56.123Z,75
2023-03-04T07:35:56.303Z,80
2023-03-04T07:36:56.059Z,80
2023-03-04T07:37:56.007Z,95
2023-03-04T07:38:56.018Z,110
2023-03-04T07:39:55.951Z,125
2023-03-04T07:40:55.952Z,140
2023-03-04T07:41:56.086Z,160
2023-03-04T07:42:55.851Z,175
2023-03-04T07:43:55.840Z,190
2023-03-04T07:44:55.832Z,200
2023-03-04T07:45:56.020Z,215
2023-03-04T07:46:55.744Z,225
2023-03-04T07:47:55.676Z,230
2023-03-04T07:48:55.688Z,230
2023-03-04T07:49:55.608Z,220
2023-03-04T07:50:55.598Z,205
2023-03-04T07:51:55.322Z,190
2023-03-04T07:52:55.544Z,205
2023-03-04T07:53:55.509Z,215
2023-03-04T07:54:55.556Z,240
2023-03-04T07:55:55.421Z,265
2023-03-04T07:56:55.175Z,265
2023-03-04T07:57:55.419Z,250
2023-03-04T07:58:55.318Z,240
2023-03-04T07:59:55.303Z,240
2023-03-04T08:00:55.238Z,245
2023-03-04T08:01:55.339Z,245
2023-03-04T08:02:55.410Z,250
2023-03-04T08:03:55.498Z,260
2023-03-04T08:04:55.201Z,255
2023-03-04T08:05:55.076Z,260
2023-03-04T08:06:55.046Z,260
2023-03-04T08:07:55.016Z,260
2023-03-04T08:08:55.021Z,280
2023-03-04T08:09:54.979Z,300
2023-03-04T08:10:54.964Z,305
2023-03-04T08:11:54.875Z,300
2023-03-04T08:12:54.894Z,290
2023-03-04T08:13:54.884Z,280
2023-03-04T08:14:54.808Z,290
2023-03-04T08:15:55.121Z,330
2023-03-04T08:16:54.729Z,345
2023-03-04T08:17:54.707Z,335
2023-03-04T08:18:54.704Z,320
2023-03-04T08:19:54.613Z,310
2023-03-04T08:20:54.607Z,305
2023-03-04T08:21:54.570Z,320
2023-03-04T08:22:54.587Z,335
2023-03-04T08:23:55.051Z,360
2023-03-04T08:24:54.463Z,385
2023-03-04T08:25:54.456Z,415
2023-03-04T08:26:54.447Z,265
2023-03-04T08:27:54.376Z,235
2023-03-04T08:28:54.427Z,215
2023-03-04T08:29:54.365Z,215
2023-03-04T08:30:54.641Z,220
2023-03-04T08:31:58.967Z,240
2023-03-04T08:32:54.600Z,285
2023-03-04T08:33:54.214Z,280
2023-03-04T08:34:54.212Z,255
2023-03-04T08:35:54.472Z,225
2023-03-04T08:36:54.196Z,215
2023-03-04T08:37:54.058Z,215
2023-03-04T08:38:54.020Z,210
2023-03-04T08:39:54.016Z,225
2023-03-04T08:40:54.005Z,220
2023-03-04T08:41:53.930Z,220
2023-03-04T08:42:53.928Z,200
2023-03-04T08:43:53.890Z,210
2023-03-04T08:44:53.676Z,265
2023-03-04T08:45:53.858Z,390
2023-03-04T08:46:53.750Z,420
2023-03-04T08:47:53.732Z,400
2023-03-04T08:48:53.776Z,395
2023-03-04T08:49:53.681Z,400
2023-03-04T08:50:53.654Z,385
2023-03-04T08:51:53.620Z,375
2023-03-04T08:52:53.567Z,380
2023-03-04T08:53:53.544Z,380
2023-03-04T08:54:53.521Z,395
2023-03-04T08:55:53.478Z,410
2023-03-04T08:56:53.491Z,360
2023-03-04T08:57:53.396Z,355
2023-03-04T08:58:53.406Z,375
2023-03-04T08:59:53.385Z,375
2023-03-04T09:00:53.448Z,370
2023-03-04T09:01:53.851Z,395
2023-03-04T09:02:53.262Z,425
2023-03-04T09:03:53.564Z,410
2023-03-04T09:04:53.210Z,380
2023-03-04T09:05:53.202Z,340
2023-03-04T09:06:55.967Z,310
2023-03-04T09:07:53.117Z,325
2023-03-04T09:08:53.098Z,325
2023-03-04T09:09:53.083Z,350
2023-03-04T09:10:52.807Z,405
2023-03-04T09:11:52.776Z,485
2023-03-04T09:12:52.952Z,510
2023-03-04T09:13:52.546Z,530
2023-03-04T09:15:13.138Z,460
2023-03-04T09:15:53.202Z,420
2023-03-04T09:16:52.862Z,385
2023-03-04T09:17:52.822Z,315
2023-03-04T09:18:52.759Z,315
2023-03-04T09:19:52.724Z,365
2023-03-04T09:20:52.714Z,395
2023-03-04T09:21:52.687Z,400
2023-03-04T09:22:52.708Z,375
2023-03-04T09:23:52.619Z,375
2023-03-04T09:24:52.575Z,400
2023-03-04T09:25:52.529Z,405
2023-03-04T09:26:52.486Z,375
2023-03-04T09:27:52.475Z,370
2023-03-04T09:28:52.447Z,395
2023-03-04T09:29:52.401Z,405
2023-03-04T09:30:53.393Z,400
2023-03-04T09:31:52.574Z,360
2023-03-04T09:32:52.349Z,340
2023-03-04T09:33:52.312Z,330
2023-03-04T09:34:52.319Z,325
2023-03-04T09:35:52.598Z,315
2023-03-04T09:36:52.194Z,315
2023-03-04T09:37:52.177Z,305
2023-03-04T09:38:52.165Z,285
2023-03-04T09:39:52.092Z,320
2023-03-04T09:40:52.129Z,405
2023-03-04T09:41:52.059Z,470
2023-03-04T09:42:54.416Z,380
2023-03-04T09:43:51.964Z,305
2023-03-04T09:44:51.959Z,285
2023-03-04T09:45:51.897Z,350
2023-03-04T09:46:52.371Z,390
2023-03-04T09:47:51.845Z,310
2023-03-04T09:48:51.594Z,285
2023-03-04T09:49:51.816Z,315
2023-03-04T09:50:51.784Z,320
2023-03-04T09:51:51.699Z,285
2023-03-04T09:52:51.681Z,290
2023-03-04T09:53:51.672Z,320
2023-03-04T09:54:51.805Z,320
2023-03-04T09:55:51.623Z,275
2023-03-04T09:56:51.550Z,260
2023-03-04T09:57:51.543Z,295
2023-03-04T09:58:51.516Z,370
2023-03-04T09:59:51.450Z,375
2023-03-04T10:00:52.029Z,350
2023-03-04T10:01:51.452Z,385
2023-03-04T10:02:51.387Z,390
2023-03-04T10:03:51.820Z,465
2023-03-04T10:04:51.686Z,410
2023-03-04T10:05:51.300Z,430
2023-03-04T10:06:51.594Z,435
2023-03-04T10:07:51.204Z,425
2023-03-04T10:08:51.152Z,455
2023-03-04T10:09:50.679Z,525
2023-03-04T10:10:51.445Z,525
2023-03-04T10:11:51.179Z,465
2023-03-04T10:12:51.048Z,450
2023-03-04T10:13:51.004Z,500
2023-03-04T10:14:50.975Z,580
2023-03-04T10:15:51.124Z,615
2023-03-04T10:16:50.969Z,655
2023-03-04T10:17:50.881Z,695
2023-03-04T10:18:50.913Z,680
2023-03-04T10:19:50.819Z,655
2023-03-04T10:20:50.837Z,505
2023-03-04T10:21:50.781Z,445
2023-03-04T10:22:50.742Z,465
2023-03-04T10:23:50.706Z,445
2023-03-04T10:24:50.645Z,475
2023-03-04T10:25:50.677Z,565
2023-03-04T10:26:50.616Z,660
2023-03-04T10:27:50.565Z,670
2023-03-04T10:28:50.572Z,675
2023-03-04T10:29:53.415Z,590
2023-03-04T10:30:50.471Z,425
2023-03-04T10:31:50.797Z,395
2023-03-04T10:32:50.534Z,470
2023-03-04T10:33:50.368Z,445
2023-03-04T10:34:50.392Z,365
2023-03-04T10:35:50.600Z,360
2023-03-04T10:36:50.308Z,380
2023-03-04T10:37:50.050Z,390
2023-03-04T10:38:50.211Z,340
2023-03-04T10:39:50.283Z,315
2023-03-04T10:40:52.938Z,320
2023-03-04T10:41:50.573Z,325
2023-03-04T10:42:50.448Z,300
2023-03-04T10:43:50.062Z,320
2023-03-04T10:44:50.044Z,310
2023-03-04T10:45:50.371Z,265
2023-03-04T10:46:49.978Z,260
2023-03-04T10:47:49.936Z,280
2023-03-04T10:48:49.911Z,300
2023-03-04T10:49:49.885Z,375
2023-03-04T10:50:49.856Z,435
2023-03-04T10:51:49.801Z,440
2023-03-04T10:52:49.819Z,355
2023-03-04T10:53:49.786Z,295
2023-03-04T10:54:49.712Z,245
2023-03-04T10:55:49.675Z,225
2023-03-04T10:56:49.708Z,200
2023-03-04T10:57:49.635Z,210
2023-03-04T10:58:49.619Z,205
2023-03-04T10:59:49.547Z,185
2023-03-04T11:00:49.417Z,155
2023-03-04T11:01:49.483Z,160
2023-03-04T11:02:49.456Z,170
2023-03-04T11:03:49.751Z,180
2023-03-04T11:04:49.402Z,195
2023-03-04T11:05:49.398Z,195
2023-03-04T11:06:49.408Z,200
2023-03-04T11:08:04.967Z,235
2023-03-04T11:08:49.285Z,260
2023-03-04T11:09:49.262Z,235
2023-03-04T11:10:49.220Z,205
2023-03-04T11:11:49.208Z,220
2023-03-04T11:12:49.183Z,330
2023-03-04T11:13:49.115Z,405
2023-03-04T11:14:48.873Z,450
2023-03-04T11:15:49.054Z,505
2023-03-04T11:16:49.316Z,520
2023-03-04T11:17:48.985Z,520
2023-03-04T11:18:48.736Z,490
2023-03-04T11:19:48.938Z,430
2023-03-04T11:20:48.889Z,440
2023-03-04T11:21:49.833Z,475
2023-03-04T11:22:48.602Z,460
2023-03-04T11:23:48.813Z,430
2023-03-04T11:24:48.761Z,395
2023-03-04T11:25:48.757Z,355
2023-03-04T11:26:48.720Z,380
2023-03-04T11:27:48.704Z,445
2023-03-04T11:28:48.685Z,405
2023-03-04T11:29:48.632Z,355
2023-03-04T11:30:48.599Z,380
2023-03-04T11:31:48.803Z,380
2023-03-04T11:32:48.778Z,390
2023-03-04T11:33:48.483Z,405
2023-03-04T11:34:48.466Z,415
2023-03-04T11:35:48.726Z,460
2023-03-04T11:36:48.384Z,430
2023-03-04T11:37:48.386Z,415
2023-03-04T11:38:48.386Z,405
2023-03-04T11:39:48.346Z,390
2023-03-04T11:40:48.378Z,395
2023-03-04T11:41:48.291Z,410
2023-03-04T11:42:48.228Z,415
2023-03-04T11:43:48.213Z,465
2023-03-04T11:44:48.201Z,490
2023-03-04T11:45:48.339Z,470
2023-03-04T11:46:48.149Z,460
2023-03-04T11:47:48.092Z,425
2023-03-04T11:48:48.058Z,425
2023-03-04T11:49:48.110Z,395
2023-03-04T11:50:48.034Z,325
2023-03-04T11:51:47.975Z,330
2023-03-04T11:52:47.942Z,335
2023-03-04T11:53:47.970Z,325
2023-03-04T11:54:47.889Z,375
2023-03-04T11:55:47.867Z,390
2023-03-04T11:56:47.830Z,395
2023-03-04T11:57:47.804Z,445
2023-03-04T11:58:47.746Z,460
2023-03-04T11:59:47.740Z,355
2023-03-04T12:00:47.713Z,305
2023-03-04T12:01:47.637Z,315
2023-03-04T12:02:47.626Z,350
2023-03-04T12:03:47.758Z,370
2023-03-04T12:04:48.062Z,345
2023-03-04T12:05:47.560Z,330
2023-03-04T12:06:47.492Z,300
2023-03-04T12:07:47.454Z,285
2023-03-04T12:08:47.638Z,275
2023-03-04T12:09:47.158Z,280
2023-03-04T12:10:47.188Z,310
2023-03-04T12:11:47.387Z,320
2023-03-04T12:12:47.300Z,325
2023-03-04T12:13:47.305Z,350
2023-03-04T12:14:47.026Z,430
2023-03-04T12:15:47.671Z,505
2023-03-04T12:16:47.266Z,480
2023-03-04T12:17:47.166Z,410
2023-03-04T12:18:47.132Z,350
2023-03-04T12:19:47.097Z,385
2023-03-04T12:20:47.097Z,430
2023-03-04T12:21:47.097Z,395
2023-03-04T12:22:46.993Z,355
2023-03-04T12:23:46.967Z,380
2023-03-04T12:24:46.947Z,400
2023-03-04T12:25:46.925Z,370
2023-03-04T12:26:46.450Z,330
2023-03-04T12:27:46.894Z,290
2023-03-04T12:28:46.593Z,285
2023-03-04T12:29:46.863Z,270
2023-03-04T12:30:46.798Z,295
2023-03-04T12:31:46.886Z,285
2023-03-04T12:32:46.841Z,225
2023-03-04T12:33:47.128Z,200
2023-03-04T12:34:46.641Z,155
2023-03-04T12:35:46.852Z,165
2023-03-04T12:36:46.574Z,185
2023-03-04T12:37:46.681Z,185
2023-03-04T12:38:46.522Z,160
2023-03-04T12:39:46.542Z,155
2023-03-04T12:40:46.443Z,145
2023-03-04T12:41:46.432Z,145
2023-03-04T12:42:46.386Z,170
2023-03-04T12:43:46.366Z,170
2023-03-04T12:44:46.309Z,195
2023-03-04T12:45:46.320Z,195
2023-03-04T12:46:46.363Z,190
2023-03-04T12:47:46.198Z,180
2023-03-04T12:48:46.320Z,195
2023-03-04T12:49:46.136Z,190
2023-03-04T12:50:46.142Z,215
2023-03-04T12:51:46.121Z,220
2023-03-04T12:52:46.080Z,250
2023-03-04T12:53:45.842Z,280
2023-03-04T12:54:46.003Z,295
2023-03-04T12:55:45.960Z,305
2023-03-04T12:56:45.948Z,335
2023-03-04T12:57:45.890Z,355
2023-03-04T12:58:45.888Z,355
2023-03-04T12:59:45.950Z,365
2023-03-04T13:00:45.804Z,310
2023-03-04T13:01:45.797Z,375
2023-03-04T13:02:46.477Z,430
2023-03-04T13:03:45.909Z,395
2023-03-04T13:04:45.704Z,370
2023-03-04T13:05:45.633Z,400
2023-03-04T13:06:45.621Z,415
2023-03-04T13:07:45.601Z,420
2023-03-04T13:08:45.535Z,435
2023-03-04T13:09:45.526Z,425
2023-03-04T13:10:45.842Z,405
2023-03-04T13:11:45.437Z,370
2023-03-04T13:12:45.420Z,335
2023-03-04T13:13:45.514Z,325
2023-03-04T13:14:45.427Z,335
2023-03-04T13:15:45.403Z,355
2023-03-04T13:16:45.288Z,370
2023-03-04T13:17:48.194Z,385
2023-03-04T13:18:45.276Z,410
2023-03-04T13:19:44.970Z,440
2023-03-04T13:20:45.223Z,470
2023-03-04T13:21:45.129Z,475
2023-03-04T13:22:45.307Z,460
2023-03-04T13:23:45.133Z,460
2023-03-04T13:24:45.028Z,395
2023-03-04T13:25:45.072Z,325
2023-03-04T13:26:44.965Z,265
2023-03-04T13:27:45.230Z,180
2023-03-04T13:28:45.018Z,140
2023-03-04T13:29:44.896Z,160
2023-03-04T13:30:44.897Z,165
2023-03-04T13:31:45.164Z,150
2023-03-04T13:32:46.642Z,125
2023-03-04T13:33:44.790Z,130
2023-03-04T13:34:44.728Z,145
2023-03-04T13:35:44.855Z,160
2023-03-04T13:36:44.712Z,165
2023-03-04T13:37:44.643Z,175
2023-03-04T13:38:44.628Z,160
2023-03-04T13:39:44.618Z,135
2023-03-04T13:40:44.566Z,115
2023-03-04T13:41:44.493Z,100
2023-03-04T13:42:44.488Z,100
2023-03-04T13:43:44.483Z,115
2023-03-04T13:44:44.447Z,140
2023-03-04T13:45:44.370Z,145
2023-03-04T13:46:44.681Z,150
2023-03-04T13:47:44.360Z,160
2023-03-04T13:48:44.095Z,160
2023-03-04T13:49:44.301Z,165
2023-03-04T13:50:46.989Z,175
2023-03-04T13:51:44.237Z,185
2023-03-04T13:52:44.208Z,200
2023-03-04T13:53:44.133Z,220
2023-03-04T13:54:43.860Z,250
2023-03-04T13:55:44.062Z,290
2023-03-04T13:56:46.804Z,335
2023-03-04T13:57:44.006Z,370
2023-03-04T13:58:43.966Z,380
2023-03-04T13:59:43.920Z,380
2023-03-04T14:00:44.188Z,380
2023-03-04T14:01:43.904Z,400
2023-03-04T14:02:43.394Z,425
2023-03-04T14:03:47.203Z,435
2023-03-04T14:04:43.827Z,425
2023-03-04T14:05:43.781Z,400
2023-03-04T14:06:43.692Z,375
2023-03-04T14:07:43.757Z,350
2023-03-04T14:08:43.679Z,340
2023-03-04T14:09:43.608Z,325
2023-03-04T14:10:43.685Z,300
2023-03-04T14:11:43.583Z,280
2023-03-04T14:12:43.530Z,270
2023-03-04T14:13:43.281Z,250
2023-03-04T14:14:46.204Z,235